Anna Maria, FL (34216)

7:05 PM EDT on July 30, 2016 (GMT -0400)
Anna Maria Island | | Change Station

Elev 20 ft 27.53 °N, 82.73 °W | Updated 1 second ago

Mostly Cloudy
Mostly Cloudy
86.7 °F
Feels Like 97 °F
N
0.9
Wind Variable Wind from NNW
Gusts 2.5 mph

Today
High -- | Low -- °F
--% Chance of Precip.
Yesterday
High -- | Low -- °F
Precip. -- in
Pressure 30.00 in
Visibility 10.0 miles
Clouds Few 2800 ft
Mostly Cloudy 11000 ft
Heat Index 97 °F
Dew Point 76 °F
Humidity 70%
Rainfall 0.11 in
Snow Depth Not available.
6:53 AM 8:20 PM
Waning Crescent, 10% visible
METAR KSRQ 302253Z AUTO 02005KT 10SM FEW028 BKN110 32/24 A3000 RMK AO2 LTG DSNT NE AND E SLP158 T03170239
Pressure 30.00 in
Visibility 10.0 miles
Clouds Few 2800 ft
Mostly Cloudy 11000 ft
Heat Index 97 °F
Dew Point 76 °F
Humidity 70%
Rainfall 0.11 in
Snow Depth Not available.
6:53 AM 8:20 PM
Waning Crescent, 10% visible
METAR KSRQ 302253Z AUTO 02005KT 10SM FEW028 BKN110 32/24 A3000 RMK AO2 LTG DSNT NE AND E SLP158 T03170239

10-Day Weather Forecast

Almanac

Astronomy

Jul. 30, 2016 Rise Set
Actual Time
Civil Twilight
Nautical Twilight
Astronomical Twilight
Moon
Length of Visible Light
Length of Day
Tomorrow will be .
, % of the Moon is Illuminated

Today's Extremes

State Highs State Lows

Community

WunderPhotos

Upload Photos

1,928,674 photos uploaded!

WunderBlog® & News

Nearby

Air Quality

  Air Quality AQ Index Pollutant
Not available.

Snow Depth

Station Depth Elevation

Earthquake Activity

City Distance Mag. Time & Date
Minimum magnitude displayed is 2.5.

Coastal Water Temperatures

Place Temperature

Stations

Nearby Weather Stations

Station Location Temp. Windchill Dew Point Humidity Wind Precip. Elev Updated Type
                   

Watches & Warnings

There are currently no watches in effect.